aviador You're here:

KJXN Decoded Metar

JACKSON/REYNOLDS in MI, USA
Report Time2018-01-18 09:56:00
UTC Time2018-01-18 10:07:32
Flight Rules vfr VFR
Wind220° at 16 Gusting to 22 kt
W.Decomp.*RWY 24: 15.5 kt HW 4.1 kt LCW
RWY 14: 1.4 kt HW 15.9 kt RCW
W.Rank220° ranks 4
Current wind is above 220° avg. (8.3)
Visibility9999 m
Phenomena:N/A
Clouds:N/A
Expected CloudBase > 1,600 ft AGL from Temp-Dew spread
CeilingNone
Temp-9°C (ISA -22)
Dew Point-13°C (73% RH)
AAT-18.0°C
QNH1018 hPa
Density Alt-1,873 ft
Elevation1,001 ft
Report Wrong Elevation
Raw Report
KJXN 180956Z AUTO 22016G22KT 10SM CLR M09/M13 A3006 RMK AO2 SLP196
T10941133=

Extra information for KJXN:More info

Metar Taf Metar & Taf Last 4 Metars F.Rules Stats Wind Profile Meteogram Temp Stats Airport Information Weather charts Add Link Nearby VenuesMetar ALERT Operation Metar Decoded Social comments

AIRNAV info for KJXN